createdAt,value
2023-04-23T00:00:37.351Z,17.04
2023-04-23T00:03:43.200Z,17.09
2023-04-23T00:06:48.185Z,16.99
2023-04-23T00:09:56.290Z,17.01
2023-04-23T00:12:59.354Z,16.98
2023-04-23T00:16:01.713Z,17.02
2023-04-23T00:19:03.905Z,16.99
2023-04-23T00:22:06.414Z,16.96
2023-04-23T00:25:09.648Z,16.90
2023-04-23T00:28:11.690Z,16.89
2023-04-23T00:31:13.828Z,16.82
2023-04-23T00:34:16.148Z,16.76
2023-04-23T00:37:18.404Z,16.73
2023-04-23T00:40:21.020Z,16.70
2023-04-23T00:43:24.292Z,16.70
2023-04-23T00:46:27.037Z,16.80
2023-04-23T00:49:30.042Z,16.75
2023-04-23T00:52:32.327Z,16.81
2023-04-23T00:55:34.727Z,16.88
2023-04-23T00:58:38.025Z,16.91
2023-04-23T01:01:41.328Z,16.92
2023-04-23T01:04:51.278Z,16.95
2023-04-23T01:07:54.395Z,16.90
2023-04-23T01:10:56.465Z,16.98
2023-04-23T01:13:59.508Z,17.01
2023-04-23T01:17:03.264Z,17.07
2023-04-23T01:20:06.819Z,17.03
2023-04-23T01:23:08.886Z,16.93
2023-04-23T01:26:11.955Z,16.97
2023-04-23T01:29:14.455Z,16.93
2023-04-23T01:32:17.620Z,16.96
2023-04-23T01:35:19.799Z,16.91
2023-04-23T01:38:22.854Z,16.92
2023-04-23T01:41:25.772Z,16.85
2023-04-23T01:44:27.954Z,16.89
2023-04-23T01:47:30.191Z,16.91
2023-04-23T01:50:32.370Z,16.79
2023-04-23T01:53:34.419Z,16.70
2023-04-23T01:56:36.608Z,16.67
2023-04-23T01:59:40.505Z,16.72
2023-04-23T02:02:44.554Z,16.73
2023-04-23T02:05:46.883Z,16.69
2023-04-23T02:08:49.953Z,16.72
2023-04-23T02:11:51.978Z,16.67
2023-04-23T02:14:54.646Z,16.61
2023-04-23T02:17:56.956Z,16.55
2023-04-23T02:21:00.031Z,16.56
2023-04-23T02:24:02.486Z,16.55
2023-04-23T02:27:05.874Z,16.53
2023-04-23T02:30:09.706Z,16.48
2023-04-23T02:33:12.664Z,16.43
2023-04-23T02:36:14.862Z,16.41
2023-04-23T02:39:17.134Z,16.34
2023-04-23T02:42:19.212Z,16.23
2023-04-23T02:45:21.490Z,16.30
2023-04-23T02:48:27.497Z,16.24
2023-04-23T02:51:29.861Z,16.38
2023-04-23T02:54:32.658Z,16.45
2023-04-23T02:57:34.904Z,16.46
2023-04-23T03:00:37.087Z,16.52
2023-04-23T03:03:39.974Z,16.51
2023-04-23T03:06:42.799Z,16.60
2023-04-23T03:09:44.873Z,16.58
2023-04-23T03:12:47.144Z,16.59
2023-04-23T03:15:51.350Z,16.82
2023-04-23T03:18:53.452Z,16.81
2023-04-23T03:21:55.925Z,16.90
2023-04-23T03:24:58.308Z,16.83
2023-04-23T03:28:01.084Z,16.86
2023-04-23T03:31:04.041Z,16.82
2023-04-23T03:34:06.271Z,16.92
2023-04-23T03:37:10.981Z,16.89
2023-04-23T03:40:14.413Z,16.99
2023-04-23T03:43:18.566Z,16.96
2023-04-23T03:46:40.148Z,17.03
2023-04-23T03:49:45.432Z,16.97
2023-04-23T03:52:48.815Z,16.97
2023-04-23T03:56:05.924Z,16.80
2023-04-23T03:59:14.210Z,16.77
2023-04-23T04:02:16.692Z,16.71
2023-04-23T04:05:19.019Z,16.58
2023-04-23T04:08:26.281Z,16.57
2023-04-23T04:11:28.450Z,16.69
2023-04-23T04:14:35.547Z,16.65
2023-04-23T04:17:38.267Z,16.77
2023-04-23T04:20:45.853Z,16.88
2023-04-23T04:23:48.297Z,16.98
2023-04-23T04:26:52.754Z,16.89
2023-04-23T04:29:54.954Z,16.97
2023-04-23T04:32:57.512Z,17.05
2023-04-23T04:36:00.705Z,17.06
2023-04-23T04:39:03.700Z,17.07
2023-04-23T04:42:07.453Z,17.13
2023-04-23T04:45:10.746Z,17.06
2023-04-23T04:48:14.880Z,17.02
2023-04-23T04:51:17.460Z,16.97
2023-04-23T04:54:19.631Z,16.94
2023-04-23T04:57:23.346Z,16.85
2023-04-23T05:00:30.366Z,16.82
2023-04-23T05:03:33.049Z,16.84
2023-04-23T05:06:35.443Z,16.86
2023-04-23T05:09:37.620Z,17.01
2023-04-23T05:12:41.621Z,17.04
2023-04-23T05:15:43.747Z,17.06
2023-04-23T05:18:46.843Z,17.11
2023-04-23T05:21:49.021Z,17.17
2023-04-23T05:24:51.082Z,17.12
2023-04-23T05:27:53.791Z,17.04
2023-04-23T05:30:57.675Z,17.15
2023-04-23T05:33:59.741Z,17.15
2023-04-23T05:37:02.544Z,17.20
2023-04-23T05:40:07.026Z,17.29
2023-04-23T05:43:09.514Z,17.20
2023-04-23T05:46:11.796Z,17.17
2023-04-23T05:49:13.909Z,17.21
2023-04-23T05:52:16.478Z,17.29
2023-04-23T05:55:20.510Z,17.46
2023-04-23T05:58:23.762Z,17.47
2023-04-23T06:01:26.128Z,17.53
2023-04-23T06:04:28.637Z,17.60
2023-04-23T06:07:32.771Z,17.70
2023-04-23T06:10:34.917Z,17.84
2023-04-23T06:13:44.059Z,17.90
2023-04-23T06:16:46.667Z,18.01
2023-04-23T06:19:48.710Z,18.06
2023-04-23T06:22:50.902Z,18.09
2023-04-23T06:25:53.062Z,18.08
2023-04-23T06:28:55.190Z,18.16
2023-04-23T06:32:13.852Z,18.27
2023-04-23T06:35:15.981Z,18.25
2023-04-23T06:38:18.990Z,18.26
2023-04-23T06:41:21.356Z,18.30
2023-04-23T06:44:34.700Z,18.36
2023-04-23T06:47:38.378Z,18.35
2023-04-23T06:50:40.702Z,18.39
2023-04-23T06:53:42.870Z,18.48
2023-04-23T06:56:44.991Z,18.45
2023-04-23T06:59:47.750Z,18.52
2023-04-23T07:02:51.064Z,18.53
2023-04-23T07:05:54.403Z,18.59
2023-04-23T07:08:56.475Z,18.64
2023-04-23T07:11:58.584Z,18.60
2023-04-23T07:15:00.962Z,18.70
2023-04-23T07:18:03.937Z,18.70
2023-04-23T07:21:06.548Z,18.72
2023-04-23T07:24:08.630Z,18.75
2023-04-23T07:27:10.885Z,18.75
2023-04-23T07:30:13.536Z,18.70
2023-04-23T07:33:15.711Z,18.71
2023-04-23T07:36:18.051Z,18.74
2023-04-23T07:39:20.212Z,18.73
2023-04-23T07:42:22.274Z,18.87
2023-04-23T07:45:24.425Z,19.44
2023-04-23T07:48:26.663Z,19.96
2023-04-23T07:51:28.930Z,20.24
2023-04-23T07:54:30.973Z,20.63
2023-04-23T07:57:33.122Z,20.94
2023-04-23T08:00:37.577Z,21.11
2023-04-23T08:03:39.937Z,21.20
2023-04-23T08:06:42.701Z,21.31
2023-04-23T08:09:46.817Z,21.44
2023-04-23T08:12:49.202Z,21.51
2023-04-23T08:15:52.723Z,21.44
2023-04-23T08:19:05.011Z,21.36
2023-04-23T08:22:11.035Z,21.58
2023-04-23T08:25:14.482Z,21.65
2023-04-23T08:28:16.639Z,21.73
2023-04-23T08:31:26.517Z,21.93
2023-04-23T08:34:29.230Z,21.93
2023-04-23T08:37:32.927Z,22.08
2023-04-23T08:40:38.001Z,22.16
2023-04-23T08:44:04.790Z,22.08
2023-04-23T08:47:11.120Z,22.06
2023-04-23T08:50:18.367Z,22.12
2023-04-23T08:53:25.880Z,22.23
2023-04-23T08:56:28.214Z,22.28
2023-04-23T08:59:34.563Z,22.23
2023-04-23T09:02:38.488Z,22.26
2023-04-23T09:05:42.948Z,22.22
2023-04-23T09:08:45.857Z,22.08
2023-04-23T09:11:47.955Z,22.21
2023-04-23T09:14:51.138Z,22.50
2023-04-23T09:17:53.670Z,22.54
2023-04-23T09:20:55.895Z,22.45
2023-04-23T09:23:58.015Z,22.35
2023-04-23T09:27:01.339Z,22.28
2023-04-23T09:30:12.064Z,22.26
2023-04-23T09:33:16.646Z,22.12
2023-04-23T09:36:22.709Z,21.92
2023-04-23T09:39:25.045Z,21.74
2023-04-23T09:42:28.782Z,21.69
2023-04-23T09:45:32.905Z,21.78
2023-04-23T09:48:43.134Z,21.78
2023-04-23T09:51:49.490Z,21.81
2023-04-23T09:54:51.694Z,21.73
2023-04-23T09:57:55.112Z,21.62
2023-04-23T10:01:07.944Z,21.46
2023-04-23T10:04:13.553Z,21.31
2023-04-23T10:07:20.043Z,21.22
2023-04-23T10:10:22.642Z,21.17
2023-04-23T10:13:25.921Z,21.02
2023-04-23T10:16:35.513Z,21.01
2023-04-23T10:19:45.250Z,20.92
2023-04-23T10:22:47.942Z,20.92
2023-04-23T10:25:53.279Z,20.94
2023-04-23T10:28:56.813Z,20.96
2023-04-23T10:32:04.279Z,21.03
2023-04-23T10:35:08.081Z,21.08
2023-04-23T10:38:10.548Z,21.19
2023-04-23T10:41:19.652Z,21.27
2023-04-23T10:44:45.063Z,21.31
2023-04-23T10:47:46.386Z,21.40
2023-04-23T10:51:09.850Z,21.40
2023-04-23T10:54:20.115Z,21.42
2023-04-23T10:57:22.310Z,21.48
2023-04-23T11:00:24.769Z,21.52
2023-04-23T11:03:31.802Z,21.54
2023-04-23T11:07:07.777Z,21.57
2023-04-23T11:10:14.450Z,21.59
2023-04-23T11:13:22.818Z,21.56
2023-04-23T11:16:30.415Z,21.57
2023-04-23T11:19:38.420Z,21.58
2023-04-23T11:22:46.562Z,21.62
2023-04-23T11:25:48.766Z,21.66
2023-04-23T11:28:54.784Z,21.68
2023-04-23T11:32:02.577Z,21.68
2023-04-23T11:35:07.824Z,21.70
2023-04-23T11:38:10.638Z,21.67
2023-04-23T11:41:12.772Z,21.67
2023-04-23T11:44:14.921Z,21.62
2023-04-23T11:47:21.461Z,21.66
2023-04-23T11:50:27.555Z,21.66
2023-04-23T11:53:29.689Z,21.66
2023-04-23T11:56:35.785Z,21.67
2023-04-23T11:59:38.117Z,21.63
2023-04-23T12:02:56.597Z,21.65
2023-04-23T12:05:59.399Z,21.69
2023-04-23T12:09:01.472Z,21.67
2023-04-23T12:12:06.017Z,21.67
2023-04-23T12:15:09.074Z,21.68
2023-04-23T12:18:12.909Z,21.64
2023-04-23T12:21:15.565Z,21.68
2023-04-23T12:24:18.037Z,21.71
2023-04-23T12:27:23.996Z,21.73
2023-04-23T12:30:30.500Z,21.72
2023-04-23T12:33:32.556Z,21.68
2023-04-23T12:36:36.896Z,21.67
2023-04-23T12:39:38.948Z,21.68
2023-04-23T12:42:42.390Z,21.69
2023-04-23T12:45:47.682Z,21.68
2023-04-23T12:48:49.824Z,21.59
2023-04-23T12:51:52.872Z,21.63
2023-04-23T12:54:56.892Z,21.62
2023-04-23T12:58:02.784Z,21.58
2023-04-23T13:01:04.970Z,21.60
2023-04-23T13:04:07.099Z,21.57
2023-04-23T13:07:11.796Z,21.59
2023-04-23T13:10:13.916Z,21.57
2023-04-23T13:13:16.053Z,21.56
2023-04-23T13:16:21.290Z,21.51
2023-04-23T13:19:23.437Z,21.51
2023-04-23T13:22:29.072Z,21.53
2023-04-23T13:25:31.274Z,21.51
2023-04-23T13:28:33.337Z,21.50
2023-04-23T13:31:38.399Z,21.58
2023-04-23T13:34:40.714Z,21.55
2023-04-23T13:37:48.749Z,21.54
2023-04-23T13:40:50.935Z,21.49
2023-04-23T13:43:52.963Z,21.49
2023-04-23T13:46:59.216Z,21.44
2023-04-23T13:50:09.857Z,21.40
2023-04-23T13:53:15.177Z,21.35
2023-04-23T13:56:18.272Z,21.38
2023-04-23T13:59:22.555Z,21.42
2023-04-23T14:02:24.715Z,21.43
2023-04-23T14:05:26.863Z,21.38
2023-04-23T14:08:30.757Z,21.27
2023-04-23T14:11:32.936Z,21.15
2023-04-23T14:14:35.212Z,21.13
2023-04-23T14:17:39.372Z,21.07
2023-04-23T14:20:42.303Z,20.99
2023-04-23T14:23:55.501Z,20.98
2023-04-23T14:26:58.110Z,21.02
2023-04-23T14:30:05.604Z,21.14
2023-04-23T14:33:07.852Z,21.28
2023-04-23T14:36:13.234Z,21.31
2023-04-23T14:39:17.204Z,21.45
2023-04-23T14:42:19.599Z,21.85
2023-04-23T14:45:21.722Z,22.10
2023-04-23T14:48:23.788Z,22.12
2023-04-23T14:51:27.529Z,21.29
2023-04-23T14:54:29.645Z,20.94
2023-04-23T14:57:31.807Z,20.94
2023-04-23T15:00:34.094Z,20.73
2023-04-23T15:03:37.067Z,20.64
2023-04-23T15:06:40.855Z,20.62
2023-04-23T15:09:43.512Z,20.55
2023-04-23T15:12:56.042Z,20.54
2023-04-23T15:16:03.456Z,20.53
2023-04-23T15:19:12.432Z,20.58
2023-04-23T15:22:14.983Z,20.63
2023-04-23T15:25:18.948Z,20.60
2023-04-23T15:28:21.658Z,20.58
2023-04-23T15:31:27.743Z,20.55
2023-04-23T15:34:36.705Z,20.49
2023-04-23T15:37:40.488Z,20.45
2023-04-23T15:40:42.764Z,20.36
2023-04-23T15:43:44.857Z,20.31
2023-04-23T15:46:47.009Z,20.23
2023-04-23T15:49:49.852Z,20.27
2023-04-23T15:52:52.050Z,20.24
2023-04-23T15:55:54.505Z,20.21
2023-04-23T15:58:57.297Z,20.18
2023-04-23T16:02:06.970Z,20.10
2023-04-23T16:05:09.881Z,20.05
2023-04-23T16:08:12.639Z,20.02
2023-04-23T16:11:15.019Z,19.99
2023-04-23T16:14:21.915Z,19.98
2023-04-23T16:17:24.887Z,19.95
2023-04-23T16:20:28.668Z,19.93
2023-04-23T16:23:31.162Z,19.88
2023-04-23T16:26:33.901Z,19.85
2023-04-23T16:29:36.077Z,19.78
2023-04-23T16:32:39.424Z,19.74
2023-04-23T16:35:41.884Z,19.70
2023-04-23T16:38:49.608Z,19.62
2023-04-23T16:41:51.741Z,19.55
2023-04-23T16:44:56.778Z,19.54
2023-04-23T16:49:07.457Z,19.48
2023-04-23T16:51:56.105Z,19.34
2023-04-23T16:55:43.556Z,19.38
2023-04-23T16:58:45.880Z,19.16
2023-04-23T17:01:56.585Z,19.20
2023-04-23T17:04:59.286Z,19.28
2023-04-23T17:08:01.930Z,19.27
2023-04-23T17:11:07.477Z,19.32
2023-04-23T17:14:09.692Z,19.32
2023-04-23T17:17:11.755Z,19.26
2023-04-23T17:20:15.909Z,19.20
2023-04-23T17:23:21.506Z,19.10
2023-04-23T17:26:24.586Z,19.09
2023-04-23T17:29:26.852Z,19.07
2023-04-23T17:32:31.510Z,19.01
2023-04-23T17:35:33.638Z,19.03
2023-04-23T17:38:35.907Z,18.96
2023-04-23T17:41:38.728Z,18.95
2023-04-23T17:44:42.626Z,18.98
2023-04-23T17:47:55.215Z,18.89
2023-04-23T17:50:57.765Z,19.00
2023-04-23T17:54:02.216Z,18.96
2023-04-23T17:57:04.997Z,18.88
2023-04-23T18:00:10.009Z,18.92
2023-04-23T18:03:18.818Z,18.86
2023-04-23T18:06:22.287Z,18.78
2023-04-23T18:09:24.414Z,18.79
2023-04-23T18:12:30.885Z,18.74
2023-04-23T18:15:33.045Z,18.81
2023-04-23T18:18:35.260Z,18.79
2023-04-23T18:21:38.962Z,18.77
2023-04-23T18:24:41.445Z,18.73
2023-04-23T18:27:44.987Z,18.72
2023-04-23T18:30:47.341Z,18.72
2023-04-23T18:34:00.184Z,18.67
2023-04-23T18:37:09.854Z,18.59
2023-04-23T18:40:12.695Z,18.61
2023-04-23T18:43:25.153Z,18.52
2023-04-23T18:46:28.924Z,18.55
2023-04-23T18:49:46.740Z,18.51
2023-04-23T18:53:00.385Z,18.59
2023-04-23T18:56:10.697Z,18.58
2023-04-23T18:59:20.469Z,18.58
2023-04-23T19:02:34.366Z,18.57
2023-04-23T19:05:38.640Z,18.51
2023-04-23T19:08:42.865Z,18.55
2023-04-23T19:11:45.599Z,18.45
2023-04-23T19:14:48.399Z,18.55
2023-04-23T19:17:50.657Z,18.51
2023-04-23T19:20:52.959Z,18.48
2023-04-23T19:23:56.874Z,18.47
2023-04-23T19:27:01.059Z,18.50
2023-04-23T19:30:10.263Z,18.52
2023-04-23T19:33:15.365Z,18.46
2023-04-23T19:36:19.704Z,18.40
2023-04-23T19:39:23.728Z,18.35
2023-04-23T19:42:25.961Z,18.26
2023-04-23T19:45:30.180Z,18.26
2023-04-23T19:48:32.897Z,18.16
2023-04-23T19:51:39.037Z,18.14
2023-04-23T19:54:49.108Z,18.14
2023-04-23T19:57:51.281Z,18.10
2023-04-23T20:00:54.499Z,18.06
2023-04-23T20:03:56.870Z,18.03
2023-04-23T20:06:59.025Z,18.03
2023-04-23T20:10:01.419Z,18.06
2023-04-23T20:13:03.724Z,18.03
2023-04-23T20:16:08.390Z,18.03
2023-04-23T20:19:13.799Z,18.07
2023-04-23T20:22:18.172Z,18.06
2023-04-23T20:25:25.750Z,18.19
2023-04-23T20:28:28.320Z,18.12
2023-04-23T20:31:31.743Z,18.16
2023-04-23T20:34:34.250Z,18.13
2023-04-23T20:37:37.047Z,18.17
2023-04-23T20:40:39.983Z,18.08
2023-04-23T20:43:43.672Z,18.01
2023-04-23T20:46:46.582Z,17.98
2023-04-23T20:49:49.937Z,18.00
2023-04-23T20:52:52.215Z,17.97
2023-04-23T20:55:57.930Z,17.94
2023-04-23T20:59:00.150Z,18.03
2023-04-23T21:02:03.734Z,18.04
2023-04-23T21:05:08.135Z,18.05
2023-04-23T21:08:11.415Z,18.04
2023-04-23T21:11:18.540Z,18.04
2023-04-23T21:14:21.289Z,18.04
2023-04-23T21:17:26.607Z,18.05
2023-04-23T21:20:29.119Z,18.00
2023-04-23T21:23:32.602Z,18.00
2023-04-23T21:26:34.866Z,17.96
2023-04-23T21:29:37.329Z,18.00
2023-04-23T21:32:39.549Z,17.98
2023-04-23T21:35:42.735Z,17.98
2023-04-23T21:38:45.409Z,17.93
2023-04-23T21:41:47.908Z,17.90
2023-04-23T21:44:53.397Z,17.82
2023-04-23T21:47:58.154Z,17.80
2023-04-23T21:51:00.560Z,17.78
2023-04-23T21:54:04.318Z,17.81
2023-04-23T21:57:06.907Z,17.75
2023-04-23T22:00:14.105Z,17.80
2023-04-23T22:03:27.937Z,17.81
2023-04-23T22:06:42.029Z,17.80
2023-04-23T22:09:44.677Z,17.81
2023-04-23T22:12:49.914Z,17.79
2023-04-23T22:15:52.438Z,17.76
2023-04-23T22:18:55.907Z,17.79
2023-04-23T22:21:58.058Z,17.75
2023-04-23T22:25:01.383Z,17.69
2023-04-23T22:28:03.883Z,17.57
2023-04-23T22:31:05.998Z,17.57
2023-04-23T22:34:08.141Z,17.56
2023-04-23T22:37:10.319Z,17.55
2023-04-23T22:40:12.922Z,17.49
2023-04-23T22:43:15.983Z,17.47
2023-04-23T22:46:18.182Z,17.44
2023-04-23T22:49:20.472Z,17.44
2023-04-23T22:52:22.767Z,17.38
2023-04-23T22:55:27.753Z,17.36
2023-04-23T22:58:30.163Z,17.34
2023-04-23T23:01:32.399Z,17.31
2023-04-23T23:04:38.044Z,17.29
2023-04-23T23:07:40.346Z,17.17
2023-04-23T23:10:43.088Z,17.22
2023-04-23T23:13:48.287Z,17.23
2023-04-23T23:16:50.404Z,17.19
2023-04-23T23:19:53.462Z,17.14
2023-04-23T23:22:55.711Z,17.16
2023-04-23T23:25:59.944Z,17.10
2023-04-23T23:29:02.404Z,17.09
2023-04-23T23:32:04.723Z,17.08
2023-04-23T23:35:08.345Z,17.02
2023-04-23T23:38:11.207Z,17.07
2023-04-23T23:41:13.414Z,17.04
2023-04-23T23:44:16.793Z,16.93
2023-04-23T23:47:19.020Z,16.98
2023-04-23T23:50:21.217Z,16.94
2023-04-23T23:53:23.227Z,16.94
2023-04-23T23:56:25.433Z,16.95
2023-04-23T23:59:27.695Z,16.99
